Time;durP1;ratioP1;P1;durP2;ratioP2;P2;SDS_P1;SDS_P2;PMS_P1;PMS_P2;Temp;Humidity;BMP_temperature;BMP_pressure;BME280_temperature;BME280_humidity;BME280_pressure;Samples;Min_cycle;Max_cycle;Signal;HPM_P1;HPM_P2
2021/09/10 00:02:11;;;;;;;;;;;19.40;88.90;;;;;;5089272;28;19914;-77
2021/09/10 00:04:37;;;;;;;;;;;19.40;88.80;;;;;;5089308;28;19915;-78
2021/09/10 00:07:02;;;;;;;;;;;19.50;88.80;;;;;;5087926;28;19908;-78
2021/09/10 00:09:28;;;;;;;;;;;19.50;88.80;;;;;;5089150;28;20527;-77
2021/09/10 00:11:53;;;;;;;;;;;19.50;88.80;;;;;;5089433;28;19935;-77
2021/09/10 00:14:19;;;;;;;;;;;19.50;88.80;;;;;;5088167;28;19931;-78
2021/09/10 00:16:45;;;;;;;;;;;19.50;88.90;;;;;;5089158;28;19912;-76
2021/09/10 00:19:10;;;;;;;;;;;19.40;89.10;;;;;;5087793;28;19999;-77
2021/09/10 00:21:36;;;;;;;;;;;19.40;89.30;;;;;;5088972;28;19916;-77
2021/09/10 00:24:01;;;;;;;;;;;19.40;89.40;;;;;;5087706;28;19920;-77
2021/09/10 00:26:27;;;;;;;;;;;19.50;89.50;;;;;;5088984;28;19939;-76
2021/09/10 00:28:53;;;;;;;;;;;19.50;89.30;;;;;;5087474;28;19912;-76
2021/09/10 00:31:18;;;;;;;;;;;19.50;89.20;;;;;;5089332;28;19904;-77
2021/09/10 00:33:44;;;;;;;;;;;19.50;89.30;;;;;;5070624;28;20289;-77
2021/09/10 00:36:09;;;;;;;;;;;19.60;89.20;;;;;;5087720;28;19908;-78
2021/09/10 00:38:35;;;;;;;;;;;19.60;89.10;;;;;;5088925;28;19947;-77
2021/09/10 00:41:01;;;;;;;;;;;19.60;89.10;;;;;;5089221;28;19912;-78
2021/09/10 00:43:27;;;;;;;;;;;19.70;89.10;;;;;;5089192;28;19908;-77
2021/09/10 00:45:55;;;;;;;;;;;19.70;89.00;;;;;;5088608;28;19964;-77
2021/09/10 00:48:21;;;;;;;;;;;19.70;89.50;;;;;;5088794;28;19908;-77
2021/09/10 00:50:47;;;;;;;;;;;19.60;89.10;;;;;;5099475;28;19912;-78
2021/09/10 00:53:13;;;;;;;;;;;19.70;89.30;;;;;;5108716;28;20404;-78
2021/09/10 00:55:40;;;;;;;;;;;19.60;89.30;;;;;;5108988;28;20298;-77
2021/09/10 00:58:06;;;;;;;;;;;19.60;89.30;;;;;;5108996;28;19903;-77
2021/09/10 01:00:31;;;;;;;;;;;19.70;89.30;;;;;;5108723;28;19981;-78
2021/09/10 01:02:57;;;;;;;;;;;19.70;89.30;;;;;;5090414;28;19930;-78
2021/09/10 01:05:23;;;;;;;;;;;19.70;89.20;;;;;;5108669;28;19912;-76
2021/09/10 01:07:50;;;;;;;;;;;19.70;89.20;;;;;;5090347;28;19907;-77
2021/09/10 01:10:16;;;;;;;;;;;19.70;89.20;;;;;;5108533;28;19904;-77
2021/09/10 01:12:41;;;;;;;;;;;19.70;89.00;;;;;;5090029;28;19912;-77
2021/09/10 01:15:08;;;;;;;;;;;19.60;89.00;;;;;;5108828;28;19903;-78
2021/09/10 01:17:34;;;;;;;;;;;19.50;89.10;;;;;;5108564;28;20326;-77
2021/09/10 01:20:00;;;;;;;;;;;19.40;89.30;;;;;;5108484;28;20002;-78
2021/09/10 01:22:25;;;;;;;;;;;19.40;89.40;;;;;;5108371;28;19999;-77
2021/09/10 01:25:13;;;;;;;;;;;19.30;89.50;;;;;;5090319;28;19915;-77
2021/09/10 01:27:46;;;;;;;;;;;19.20;89.50;;;;;;5108506;28;19950;-78
2021/09/10 01:30:15;;;;;;;;;;;19.20;89.60;;;;;;5090097;28;19985;-78
2021/09/10 01:32:41;;;;;;;;;;;19.20;89.50;;;;;;5089750;28;19911;-78
2021/09/10 01:35:07;;;;;;;;;;;19.20;89.50;;;;;;5108381;28;19908;-77
2021/09/10 01:37:33;;;;;;;;;;;19.20;89.50;;;;;;5108513;28;19907;-77
2021/09/10 01:39:58;;;;;;;;;;;19.20;89.60;;;;;;5108362;28;19998;-76
2021/09/10 01:42:24;;;;;;;;;;;19.10;89.60;;;;;;5108219;28;20017;-79
2021/09/10 01:44:50;;;;;;;;;;;19.20;89.70;;;;;;5108341;28;19904;-78
2021/09/10 01:47:15;;;;;;;;;;;19.20;89.70;;;;;;5108297;28;20196;-76
2021/09/10 01:49:41;;;;;;;;;;;19.20;89.60;;;;;;5108046;28;19907;-76
2021/09/10 01:52:06;;;;;;;;;;;19.30;89.60;;;;;;5108065;28;19916;-77
2021/09/10 01:54:32;;;;;;;;;;;19.20;89.60;;;;;;5089793;28;19919;-79
2021/09/10 01:56:58;;;;;;;;;;;19.30;89.70;;;;;;5089905;28;19915;-76
2021/09/10 01:59:24;;;;;;;;;;;19.30;89.70;;;;;;5108133;28;19912;-77
2021/09/10 02:01:49;;;;;;;;;;;19.30;89.70;;;;;;5089752;28;20370;-78
2021/09/10 02:04:15;;;;;;;;;;;19.30;89.70;;;;;;5108034;28;20259;-78
2021/09/10 02:06:40;;;;;;;;;;;19.40;89.60;;;;;;5110824;28;20420;-77
2021/09/10 02:09:06;;;;;;;;;;;19.40;89.60;;;;;;5111985;28;20311;-77
2021/09/10 02:11:31;;;;;;;;;;;19.40;89.50;;;;;;5111882;28;20278;-77
2021/09/10 02:13:57;;;;;;;;;;;19.50;89.40;;;;;;5076726;28;19912;-76
2021/09/10 02:16:23;;;;;;;;;;;19.40;89.30;;;;;;5111789;28;19912;-77
2021/09/10 02:18:48;;;;;;;;;;;19.40;89.40;;;;;;5093543;28;20322;-78
2021/09/10 02:21:14;;;;;;;;;;;19.40;89.40;;;;;;5093354;28;20262;-77
2021/09/10 02:23:39;;;;;;;;;;;19.50;89.50;;;;;;5093430;28;20279;-77
2021/09/10 02:26:05;;;;;;;;;;;19.50;89.30;;;;;;5111938;28;19908;-77
2021/09/10 02:28:31;;;;;;;;;;;19.40;89.30;;;;;;5111898;28;19911;-77
2021/09/10 02:30:56;;;;;;;;;;;19.40;89.30;;;;;;5111473;28;19914;-77
2021/09/10 02:33:22;;;;;;;;;;;19.40;89.20;;;;;;5111483;28;19912;-79
2021/09/10 02:35:47;;;;;;;;;;;19.40;89.10;;;;;;5093170;28;20357;-77
2021/09/10 02:38:13;;;;;;;;;;;19.40;89.00;;;;;;5093066;28;19929;-77
2021/09/10 02:40:38;;;;;;;;;;;19.50;89.10;;;;;;5111672;28;19910;-78
2021/09/10 02:43:04;;;;;;;;;;;19.50;89.10;;;;;;5111185;28;19914;-76
2021/09/10 02:45:30;;;;;;;;;;;19.50;89.00;;;;;;5111240;28;19911;-78
2021/09/10 02:47:56;;;;;;;;;;;19.50;88.90;;;;;;5111197;28;19911;-76
2021/09/10 02:50:22;;;;;;;;;;;19.50;88.90;;;;;;5111103;28;19918;-77
2021/09/10 02:52:49;;;;;;;;;;;19.50;89.00;;;;;;5092796;28;19915;-78
2021/09/10 02:55:14;;;;;;;;;;;19.50;89.10;;;;;;5111066;28;19904;-76
2021/09/10 02:57:40;;;;;;;;;;;19.40;89.20;;;;;;5092722;28;20349;-77
2021/09/10 03:00:06;;;;;;;;;;;19.40;89.90;;;;;;5111311;28;19907;-77
2021/09/10 03:02:32;;;;;;;;;;;19.40;89.50;;;;;;5092608;28;20271;-77
2021/09/10 03:04:58;;;;;;;;;;;19.50;89.60;;;;;;5111047;28;20046;-78
2021/09/10 03:07:23;;;;;;;;;;;19.50;89.50;;;;;;5110729;28;19922;-77
2021/09/10 03:09:49;;;;;;;;;;;19.50;89.40;;;;;;5092435;28;20365;-77
2021/09/10 03:12:14;;;;;;;;;;;19.50;89.30;;;;;;5110572;28;20315;-77
2021/09/10 03:14:40;;;;;;;;;;;19.50;89.20;;;;;;5092244;28;19911;-77
2021/09/10 03:17:05;;;;;;;;;;;19.50;89.20;;;;;;5091179;28;19955;-76
2021/09/10 03:19:31;;;;;;;;;;;19.50;89.20;;;;;;5110529;28;20012;-77
2021/09/10 03:21:56;;;;;;;;;;;19.50;89.30;;;;;;5092272;28;19912;-77
2021/09/10 03:24:22;;;;;;;;;;;19.50;89.40;;;;;;5092218;28;20383;-77
2021/09/10 03:26:48;;;;;;;;;;;19.50;89.50;;;;;;5110438;28;20422;-78
2021/09/10 03:29:13;;;;;;;;;;;19.50;89.40;;;;;;5092100;28;19907;-77
2021/09/10 03:31:39;;;;;;;;;;;19.60;89.40;;;;;;5110275;28;19956;-76
2021/09/10 03:34:05;;;;;;;;;;;19.60;89.40;;;;;;5110287;28;20385;-77
2021/09/10 03:36:31;;;;;;;;;;;19.60;89.40;;;;;;5110354;28;19969;-77
2021/09/10 03:38:56;;;;;;;;;;;19.60;89.40;;;;;;5091914;28;19968;-77
2021/09/10 03:41:22;;;;;;;;;;;19.60;89.40;;;;;;5091762;28;19904;-77
2021/09/10 03:43:52;;;;;;;;;;;19.70;89.40;;;;;;5091991;28;20354;-76
2021/09/10 03:46:18;;;;;;;;;;;19.60;89.30;;;;;;5109926;28;20345;-76
2021/09/10 03:48:44;;;;;;;;;;;19.60;89.20;;;;;;5109812;28;19903;-77
2021/09/10 03:51:09;;;;;;;;;;;19.70;89.20;;;;;;5091133;28;19919;-78
2021/09/10 03:53:35;;;;;;;;;;;19.70;89.20;;;;;;5091264;28;19958;-78
2021/09/10 03:56:00;;;;;;;;;;;19.70;89.10;;;;;;5091279;28;19918;-77
2021/09/10 03:58:26;;;;;;;;;;;19.70;89.20;;;;;;5091248;28;19908;-76
2021/09/10 04:00:51;;;;;;;;;;;19.60;89.10;;;;;;5109459;28;19908;-77
2021/09/10 04:03:17;;;;;;;;;;;19.70;89.20;;;;;;5091295;28;20358;-78
2021/09/10 04:05:42;;;;;;;;;;;19.60;89.20;;;;;;5109548;28;20388;-76
2021/09/10 04:08:08;;;;;;;;;;;19.60;89.30;;;;;;5109648;28;20096;-77
2021/09/10 04:10:34;;;;;;;;;;;19.60;89.40;;;;;;5109922;28;19927;-77
2021/09/10 04:13:00;;;;;;;;;;;19.60;89.50;;;;;;5091200;28;19964;-78
2021/09/10 04:15:26;;;;;;;;;;;19.60;89.50;;;;;;5109473;28;19966;-78
2021/09/10 04:17:51;;;;;;;;;;;19.60;89.50;;;;;;5109488;28;19908;-77
2021/09/10 04:20:17;;;;;;;;;;;19.60;89.60;;;;;;5109482;28;19933;-77
2021/09/10 04:22:43;;;;;;;;;;;19.60;89.60;;;;;;5109341;28;19907;-76
2021/09/10 04:25:08;;;;;;;;;;;19.60;89.70;;;;;;5091026;28;19956;-76
2021/09/10 04:27:34;;;;;;;;;;;19.60;89.80;;;;;;5109500;28;19904;-77
2021/09/10 04:30:00;;;;;;;;;;;19.60;89.80;;;;;;5090810;28;19947;-76
2021/09/10 04:32:26;;;;;;;;;;;19.50;89.80;;;;;;5090799;28;20002;-76
2021/09/10 04:34:51;;;;;;;;;;;19.50;89.90;;;;;;5109133;28;19908;-77
2021/09/10 04:37:17;;;;;;;;;;;19.50;90.00;;;;;;5090641;28;20429;-77
2021/09/10 04:39:42;;;;;;;;;;;19.40;90.00;;;;;;5090745;28;19926;-77
2021/09/10 04:42:08;;;;;;;;;;;19.50;90.10;;;;;;5109132;28;19918;-76
2021/09/10 04:44:34;;;;;;;;;;;19.50;90.10;;;;;;5090812;28;20385;-78
2021/09/10 04:46:59;;;;;;;;;;;19.50;90.10;;;;;;5090912;28;19907;-76
2021/09/10 04:49:25;;;;;;;;;;;19.40;90.20;;;;;;5091364;28;20401;-77
2021/09/10 04:51:51;;;;;;;;;;;19.40;90.20;;;;;;5108660;28;19911;-77
2021/09/10 04:54:16;;;;;;;;;;;19.40;90.40;;;;;;5090727;28;20259;-77
2021/09/10 04:56:45;;;;;;;;;;;19.40;90.40;;;;;;5090656;28;19930;-76
2021/09/10 04:59:11;;;;;;;;;;;19.30;90.50;;;;;;5108764;28;20247;-77
2021/09/10 05:01:36;;;;;;;;;;;19.30;90.60;;;;;;5090595;28;19908;-77
2021/09/10 05:04:02;;;;;;;;;;;19.30;90.70;;;;;;5090919;28;19914;-76
2021/09/10 05:06:28;;;;;;;;;;;19.30;90.80;;;;;;5091443;28;19910;-76
2021/09/10 05:08:54;;;;;;;;;;;19.20;90.80;;;;;;5091419;28;19960;-76
2021/09/10 05:11:20;;;;;;;;;;;19.20;90.90;;;;;;5074192;28;19908;-77
2021/09/10 05:13:45;;;;;;;;;;;19.20;91.00;;;;;;5074268;28;20355;-76
2021/09/10 05:16:11;;;;;;;;;;;19.20;91.00;;;;;;5090606;28;19914;-78
2021/09/10 05:18:36;;;;;;;;;;;19.20;91.00;;;;;;5090811;28;19963;-77
2021/09/10 05:21:02;;;;;;;;;;;19.20;91.10;;;;;;5090365;28;19907;-76
2021/09/10 05:23:27;;;;;;;;;;;19.20;91.30;;;;;;5108944;28;19911;-77
2021/09/10 05:25:53;;;;;;;;;;;19.20;91.20;;;;;;5090842;28;19912;-76
2021/09/10 05:28:18;;;;;;;;;;;19.30;91.30;;;;;;5108996;28;19911;-77
2021/09/10 05:30:44;;;;;;;;;;;19.30;91.40;;;;;;5108719;28;20102;-77
2021/09/10 05:33:10;;;;;;;;;;;19.30;91.50;;;;;;5090394;28;19912;-77
2021/09/10 05:35:35;;;;;;;;;;;19.30;91.40;;;;;;5108311;28;19927;-76
2021/09/10 05:38:01;;;;;;;;;;;19.30;91.40;;;;;;5090163;28;19915;-78
2021/09/10 05:40:26;;;;;;;;;;;19.40;91.50;;;;;;5109188;28;19908;-77
2021/09/10 05:42:52;;;;;;;;;;;19.40;91.40;;;;;;5094586;28;19908;-76
2021/09/10 05:45:18;;;;;;;;;;;19.40;91.50;;;;;;5077554;28;19915;-78
2021/09/10 05:47:43;;;;;;;;;;;19.30;91.40;;;;;;5113077;28;19915;-77
2021/09/10 05:50:09;;;;;;;;;;;19.30;91.50;;;;;;5094295;28;19968;-78
2021/09/10 05:52:35;;;;;;;;;;;19.40;91.50;;;;;;5094223;28;20001;-76
2021/09/10 05:55:01;;;;;;;;;;;19.40;91.50;;;;;;5094434;28;19911;-77
2021/09/10 05:57:26;;;;;;;;;;;19.40;91.50;;;;;;5112099;28;19910;-76
2021/09/10 05:59:52;;;;;;;;;;;19.40;91.60;;;;;;5112089;28;19914;-76
2021/09/10 06:02:18;;;;;;;;;;;19.40;91.60;;;;;;5111916;28;19930;-77
2021/09/10 06:04:44;;;;;;;;;;;19.50;91.60;;;;;;5111939;28;19943;-76
2021/09/10 06:07:09;;;;;;;;;;;19.40;91.60;;;;;;5093583;28;19957;-77
2021/09/10 06:09:35;;;;;;;;;;;19.40;91.70;;;;;;5111828;28;19914;-77
2021/09/10 06:12:00;;;;;;;;;;;19.50;91.70;;;;;;5093416;28;19954;-78
2021/09/10 06:14:26;;;;;;;;;;;19.40;91.70;;;;;;5093659;28;19908;-77
2021/09/10 06:16:52;;;;;;;;;;;19.50;91.70;;;;;;5111535;28;19904;-77
2021/09/10 06:19:17;;;;;;;;;;;19.50;91.80;;;;;;5076351;28;19908;-77
2021/09/10 06:21:43;;;;;;;;;;;19.50;91.80;;;;;;5093102;28;19911;-77
2021/09/10 06:24:09;;;;;;;;;;;19.50;91.80;;;;;;5093364;28;20385;-77
2021/09/10 06:26:35;;;;;;;;;;;19.50;91.80;;;;;;5111516;28;20004;-77
2021/09/10 06:29:01;;;;;;;;;;;19.60;91.80;;;;;;5093190;28;19912;-77
2021/09/10 06:31:26;;;;;;;;;;;19.60;91.80;;;;;;5111353;28;20102;-76
2021/09/10 06:33:52;;;;;;;;;;;19.60;91.80;;;;;;5111329;28;19923;-77
2021/09/10 06:36:18;;;;;;;;;;;19.60;91.80;;;;;;5093123;28;19911;-76
2021/09/10 06:38:43;;;;;;;;;;;19.70;91.80;;;;;;5092819;28;19908;-75
2021/09/10 06:41:09;;;;;;;;;;;19.70;91.80;;;;;;5110901;28;20002;-75
2021/09/10 06:43:35;;;;;;;;;;;19.70;91.90;;;;;;5092706;28;19911;-76
2021/09/10 06:46:00;;;;;;;;;;;19.70;91.90;;;;;;5111124;28;20281;-76
2021/09/10 06:48:26;;;;;;;;;;;19.70;91.90;;;;;;5110519;28;19908;-76
2021/09/10 06:50:52;;;;;;;;;;;19.80;91.90;;;;;;5110746;28;19915;-77
2021/09/10 06:53:17;;;;;;;;;;;19.80;91.90;;;;;;5111240;28;19955;-77
2021/09/10 06:55:43;;;;;;;;;;;19.80;92.00;;;;;;5093681;28;19934;-78
2021/09/10 06:58:09;;;;;;;;;;;19.80;92.00;;;;;;5111468;28;19918;-78
2021/09/10 07:00:34;;;;;;;;;;;19.80;91.90;;;;;;5075530;28;19961;-76
2021/09/10 07:03:00;;;;;;;;;;;19.80;92.10;;;;;;5092235;28;19911;-75
2021/09/10 07:05:26;;;;;;;;;;;19.90;92.10;;;;;;5092306;28;19910;-76
2021/09/10 07:07:52;;;;;;;;;;;19.90;92.10;;;;;;5110217;28;19907;-77
2021/09/10 07:10:18;;;;;;;;;;;20.00;92.10;;;;;;5110957;28;19914;-76
2021/09/10 07:12:44;;;;;;;;;;;20.00;92.20;;;;;;5092349;28;19962;-76
2021/09/10 07:15:09;;;;;;;;;;;20.00;92.10;;;;;;5092558;28;19941;-76
2021/09/10 07:17:35;;;;;;;;;;;20.00;92.20;;;;;;5092084;28;19908;-77
2021/09/10 07:20:01;;;;;;;;;;;20.00;92.30;;;;;;5075301;28;19913;-77
2021/09/10 07:22:26;;;;;;;;;;;20.00;92.30;;;;;;5091915;28;19927;-75
2021/09/10 07:24:52;;;;;;;;;;;20.00;92.40;;;;;;5092057;28;20018;-75
2021/09/10 07:27:18;;;;;;;;;;;20.00;92.30;;;;;;5092087;28;19915;-76
2021/09/10 07:29:44;;;;;;;;;;;20.00;92.40;;;;;;5110213;28;20274;-75
2021/09/10 07:32:09;;;;;;;;;;;20.00;92.40;;;;;;5109772;28;19987;-76
2021/09/10 07:34:35;;;;;;;;;;;20.10;92.40;;;;;;5110009;28;20273;-75
2021/09/10 07:37:01;;;;;;;;;;;20.10;92.40;;;;;;5091796;28;19994;-75
2021/09/10 07:39:27;;;;;;;;;;;20.10;92.40;;;;;;5110196;28;19910;-76
2021/09/10 07:41:52;;;;;;;;;;;20.20;92.50;;;;;;5109995;28;20121;-76
2021/09/10 07:44:18;;;;;;;;;;;20.20;92.50;;;;;;5110022;28;20002;-76
2021/09/10 07:46:44;;;;;;;;;;;20.20;92.60;;;;;;5109556;28;19915;-76
2021/09/10 07:49:11;;;;;;;;;;;20.20;92.50;;;;;;5109657;28;19957;-76
2021/09/10 07:51:36;;;;;;;;;;;20.30;92.60;;;;;;5089596;28;19933;-78
2021/09/10 07:54:05;;;;;;;;;;;20.30;92.60;;;;;;5087025;28;20434;-76
2021/09/10 07:56:31;;;;;;;;;;;20.40;92.60;;;;;;5096297;28;20476;-76
2021/09/10 07:58:57;;;;;;;;;;;20.50;92.50;;;;;;5088260;28;19929;-76
2021/09/10 08:01:23;;;;;;;;;;;20.50;92.50;;;;;;5096736;28;19953;-76
2021/09/10 08:03:48;;;;;;;;;;;20.60;92.60;;;;;;5085734;28;19916;-76
2021/09/10 08:06:14;;;;;;;;;;;20.60;92.50;;;;;;5098908;28;19915;-75
2021/09/10 08:08:40;;;;;;;;;;;20.70;92.50;;;;;;5072262;28;19908;-76
2021/09/10 08:11:05;;;;;;;;;;;20.70;92.50;;;;;;5090167;28;19994;-76
2021/09/10 08:13:31;;;;;;;;;;;20.70;92.50;;;;;;5071602;28;19912;-76
2021/09/10 08:15:57;;;;;;;;;;;20.70;92.50;;;;;;5099178;28;20026;-76
2021/09/10 08:18:22;;;;;;;;;;;20.80;92.50;;;;;;5096923;28;20093;-77
2021/09/10 08:20:48;;;;;;;;;;;20.80;92.50;;;;;;5087130;28;20246;-77
2021/09/10 08:23:14;;;;;;;;;;;20.80;92.50;;;;;;5087723;28;20274;-77
2021/09/10 08:25:39;;;;;;;;;;;20.90;92.40;;;;;;5097816;28;19916;-76
2021/09/10 08:28:05;;;;;;;;;;;20.90;92.50;;;;;;5087322;28;19908;-74
2021/09/10 08:30:31;;;;;;;;;;;20.90;92.50;;;;;;5089454;28;19908;-77
2021/09/10 08:32:58;;;;;;;;;;;20.90;92.50;;;;;;5088447;28;19955;-75
2021/09/10 08:35:23;;;;;;;;;;;20.90;92.50;;;;;;5096932;28;19908;-76
2021/09/10 08:37:49;;;;;;;;;;;21.00;92.50;;;;;;5086877;28;20441;-77
2021/09/10 08:40:15;;;;;;;;;;;20.90;92.50;;;;;;5098641;28;19953;-75
2021/09/10 08:42:42;;;;;;;;;;;20.90;92.60;;;;;;5087533;28;20009;-75
2021/09/10 08:45:08;;;;;;;;;;;21.00;92.70;;;;;;5087965;28;19911;-77
2021/09/10 08:47:34;;;;;;;;;;;21.00;92.70;;;;;;5096847;28;20270;-76
2021/09/10 08:49:59;;;;;;;;;;;21.20;92.70;;;;;;5097141;28;19912;-76
2021/09/10 08:52:25;;;;;;;;;;;21.30;92.80;;;;;;5098132;28;20378;-78
2021/09/10 08:54:50;;;;;;;;;;;21.50;92.60;;;;;;5088387;28;19908;-76
2021/09/10 08:57:16;;;;;;;;;;;21.60;92.70;;;;;;5096641;28;19908;-76
2021/09/10 08:59:42;;;;;;;;;;;21.80;92.60;;;;;;5098988;28;19915;-76
2021/09/10 09:02:08;;;;;;;;;;;22.00;92.50;;;;;;5085858;28;19949;-77
2021/09/10 09:04:35;;;;;;;;;;;22.20;92.50;;;;;;5089177;28;19912;-76
2021/09/10 09:07:03;;;;;;;;;;;22.40;92.40;;;;;;5096575;28;19960;-77
2021/09/10 09:09:34;;;;;;;;;;;22.50;92.40;;;;;;5097904;28;19908;-76
2021/09/10 09:12:19;;;;;;;;;;;22.70;92.30;;;;;;5097368;28;19921;-77
2021/09/10 09:14:44;;;;;;;;;;;22.80;92.20;;;;;;5098365;28;20307;-77
2021/09/10 09:17:16;;;;;;;;;;;22.80;92.00;;;;;;5096065;28;19904;-76
2021/09/10 09:19:42;;;;;;;;;;;22.70;91.90;;;;;;5088487;28;20362;-76
2021/09/10 09:22:07;;;;;;;;;;;22.60;92.00;;;;;;5099030;28;19949;-77
2021/09/10 09:24:33;;;;;;;;;;;22.50;92.00;;;;;;5092845;28;19949;-77
2021/09/10 09:27:07;;;;;;;;;;;22.40;92.00;;;;;;5108945;28;19908;-76
2021/09/10 09:29:47;;;;;;;;;;;22.40;92.00;;;;;;5098811;28;20589;-77
2021/09/10 09:32:13;;;;;;;;;;;22.40;92.00;;;;;;5102413;28;19912;-76
2021/09/10 09:34:48;;;;;;;;;;;22.30;91.90;;;;;;5105287;28;19912;-78
2021/09/10 09:37:14;;;;;;;;;;;22.40;92.00;;;;;;5086629;28;19908;-77
2021/09/10 09:39:53;;;;;;;;;;;22.40;92.10;;;;;;5090630;28;19908;-77
2021/09/10 09:42:32;;;;;;;;;;;22.40;92.00;;;;;;5069620;28;19912;-78
2021/09/10 09:45:12;;;;;;;;;;;22.30;91.90;;;;;;5088369;28;19951;-77
2021/09/10 09:47:38;;;;;;;;;;;22.30;92.00;;;;;;5106092;28;19965;-77
2021/09/10 09:50:08;;;;;;;;;;;22.50;92.10;;;;;;5105662;28;19912;-77
2021/09/10 09:52:33;;;;;;;;;;;22.70;92.20;;;;;;5070577;28;19916;-77
2021/09/10 09:55:00;;;;;;;;;;;23.00;92.20;;;;;;5090570;28;19908;-78
2021/09/10 09:57:27;;;;;;;;;;;23.20;92.00;;;;;;5083937;28;19908;-77
2021/09/10 09:59:52;;;;;;;;;;;23.40;91.80;;;;;;5096086;28;19908;-78
2021/09/10 10:02:18;;;;;;;;;;;23.50;91.60;;;;;;5087268;28;20011;-78
2021/09/10 10:04:44;;;;;;;;;;;23.40;91.50;;;;;;5105918;28;20361;-77
2021/09/10 10:07:10;;;;;;;;;;;23.40;91.60;;;;;;5089293;28;19926;-78
2021/09/10 10:09:37;;;;;;;;;;;23.50;91.70;;;;;;5090329;28;19911;-78
2021/09/10 10:12:03;;;;;;;;;;;23.70;91.70;;;;;;5090027;28;19920;-78
2021/09/10 10:14:31;;;;;;;;;;;23.80;91.60;;;;;;5089780;28;19908;-75
2021/09/10 10:16:57;;;;;;;;;;;23.90;91.50;;;;;;5108040;28;19904;-78
2021/09/10 10:19:25;;;;;;;;;;;23.90;91.40;;;;;;5090770;28;20299;-78
2021/09/10 10:21:52;;;;;;;;;;;23.80;91.20;;;;;;5107582;28;19904;-78
2021/09/10 10:24:37;;;;;;;;;;;23.80;91.20;;;;;;5101083;28;19933;-77
2021/09/10 10:27:21;;;;;;;;;;;23.80;91.30;;;;;;5091876;28;20420;-76
2021/09/10 10:29:50;;;;;;;;;;;23.80;91.40;;;;;;5113037;28;19986;-76
2021/09/10 10:32:28;;;;;;;;;;;23.80;91.30;;;;;;5077135;28;19908;-78
2021/09/10 10:35:12;;;;;;;;;;;23.70;91.30;;;;;;5091647;28;19956;-76
2021/09/10 10:37:39;;;;;;;;;;;23.60;91.40;;;;;;5092391;28;20243;-76
2021/09/10 10:40:24;;;;;;;;;;;23.70;91.60;;;;;;5093645;28;19910;-75
2021/09/10 10:42:50;;;;;;;;;;;23.80;91.60;;;;;;5091623;28;20370;-78
2021/09/10 10:45:15;;;;;;;;;;;24.10;91.60;;;;;;5094028;28;19903;-77
2021/09/10 10:47:41;;;;;;;;;;;24.20;91.50;;;;;;5093474;28;20353;-77
2021/09/10 10:50:25;;;;;;;;;;;24.20;91.30;;;;;;5090049;28;19922;-77
2021/09/10 10:52:56;;;;;;;;;;;24.20;91.20;;;;;;5110149;28;19923;-75
2021/09/10 10:55:23;;;;;;;;;;;24.10;91.00;;;;;;5111026;28;19907;-76
2021/09/10 10:57:50;;;;;;;;;;;24.10;90.80;;;;;;5109549;28;19915;-76
2021/09/10 11:00:43;;;;;;;;;;;24.00;90.80;;;;;;5110776;28;20040;-77
2021/09/10 11:03:14;;;;;;;;;;;24.00;90.80;;;;;;5110472;28;20008;-76
2021/09/10 11:05:41;;;;;;;;;;;24.10;90.70;;;;;;5111387;28;19911;-75
2021/09/10 11:08:06;;;;;;;;;;;24.30;90.60;;;;;;5111163;28;19907;-75
2021/09/10 11:10:32;;;;;;;;;;;24.50;90.50;;;;;;5111543;28;20003;-75
2021/09/10 11:12:58;;;;;;;;;;;24.50;90.40;;;;;;5111612;28;19954;-76
2021/09/10 11:15:25;;;;;;;;;;;24.40;90.40;;;;;;5111705;28;19908;-76
2021/09/10 11:17:51;;;;;;;;;;;24.30;90.10;;;;;;5111618;28;19907;-76
2021/09/10 11:20:23;;;;;;;;;;;24.30;90.10;;;;;;5076333;28;19980;-73
2021/09/10 11:22:49;;;;;;;;;;;24.30;90.00;;;;;;5093070;28;19904;-76
2021/09/10 11:25:14;;;;;;;;;;;24.20;90.00;;;;;;5111640;28;20399;-74
2021/09/10 11:27:40;;;;;;;;;;;24.10;89.60;;;;;;5112236;28;19958;-70
2021/09/10 11:30:07;;;;;;;;;;;24.00;89.80;;;;;;5093003;28;19911;-79
2021/09/10 11:32:32;;;;;;;;;;;23.80;89.50;;;;;;5093422;28;19912;-76
2021/09/10 11:34:58;;;;;;;;;;;23.80;89.70;;;;;;5111675;28;19918;-74
2021/09/10 11:37:27;;;;;;;;;;;23.80;89.80;;;;;;5111015;28;19914;-73
2021/09/10 11:39:53;;;;;;;;;;;23.80;89.70;;;;;;5092113;28;20025;-76
2021/09/10 11:42:38;;;;;;;;;;;23.80;90.00;;;;;;5111845;28;19910;-76
2021/09/10 11:45:10;;;;;;;;;;;24.10;90.20;;;;;;5089257;28;20018;-75
2021/09/10 11:47:36;;;;;;;;;;;24.30;90.00;;;;;;5111627;28;19903;-75
2021/09/10 11:50:04;;;;;;;;;;;24.30;89.70;;;;;;5093012;28;19915;-76
2021/09/10 11:52:30;;;;;;;;;;;24.30;89.60;;;;;;5092532;28;20346;-74
2021/09/10 11:55:13;;;;;;;;;;;24.30;89.20;;;;;;5110389;28;20408;-76
2021/09/10 11:57:40;;;;;;;;;;;24.30;89.20;;;;;;5110193;28;20026;-77
2021/09/10 12:00:06;;;;;;;;;;;24.40;89.60;;;;;;5109842;28;19904;-73
2021/09/10 12:02:33;;;;;;;;;;;24.60;89.20;;;;;;5090031;28;19911;-77
2021/09/10 12:05:00;;;;;;;;;;;24.60;88.60;;;;;;5109903;28;20381;-77
2021/09/10 12:07:30;;;;;;;;;;;24.50;88.60;;;;;;5091443;28;19911;-75
2021/09/10 12:09:55;;;;;;;;;;;24.30;88.40;;;;;;5091939;28;19946;-77
2021/09/10 12:12:23;;;;;;;;;;;24.10;88.50;;;;;;5111355;28;20277;-76
2021/09/10 12:14:52;;;;;;;;;;;23.90;88.50;;;;;;5092566;28;20362;-78
2021/09/10 12:17:23;;;;;;;;;;;23.70;88.80;;;;;;5110895;28;19911;-74
2021/09/10 12:19:49;;;;;;;;;;;23.60;89.00;;;;;;5110665;28;19903;-75
2021/09/10 12:22:28;;;;;;;;;;;23.50;89.30;;;;;;5092944;28;19988;-75
2021/09/10 12:25:12;;;;;;;;;;;23.40;89.30;;;;;;5110997;28;20378;-76
2021/09/10 12:27:38;;;;;;;;;;;23.30;88.90;;;;;;5110773;28;19907;-77
2021/09/10 12:30:12;;;;;;;;;;;23.10;88.90;;;;;;5075354;28;19907;-77
2021/09/10 12:32:37;;;;;;;;;;;23.10;89.10;;;;;;5090961;28;19908;-75
2021/09/10 12:35:03;;;;;;;;;;;23.00;89.30;;;;;;5110109;28;19908;-76
2021/09/10 12:37:29;;;;;;;;;;;22.90;89.40;;;;;;5110124;28;19911;-75
2021/09/10 12:39:54;;;;;;;;;;;23.00;89.40;;;;;;5110236;28;20001;-75
2021/09/10 12:42:20;;;;;;;;;;;22.90;89.40;;;;;;5110364;28;20000;-76
2021/09/10 12:44:45;;;;;;;;;;;22.90;89.50;;;;;;5111934;28;19903;-77
2021/09/10 12:47:11;;;;;;;;;;;22.90;89.60;;;;;;5111493;28;20367;-76
2021/09/10 12:49:36;;;;;;;;;;;23.00;89.80;;;;;;5110279;28;20261;-77
2021/09/10 12:52:02;;;;;;;;;;;23.00;89.60;;;;;;5109457;28;19919;-77
2021/09/10 12:54:28;;;;;;;;;;;23.10;89.60;;;;;;5109765;28;19908;-76
2021/09/10 12:56:53;;;;;;;;;;;23.20;89.60;;;;;;5091301;28;19914;-77
2021/09/10 12:59:19;;;;;;;;;;;23.30;89.60;;;;;;5109905;28;19915;-78
2021/09/10 13:01:44;;;;;;;;;;;23.50;89.60;;;;;;5090679;28;19907;-76
2021/09/10 13:04:10;;;;;;;;;;;23.60;89.30;;;;;;5108768;28;20014;-76
2021/09/10 13:06:35;;;;;;;;;;;23.60;89.00;;;;;;5109567;28;19920;-78
2021/09/10 13:09:01;;;;;;;;;;;23.50;88.40;;;;;;5090769;28;19915;-75
2021/09/10 13:11:26;;;;;;;;;;;23.40;88.60;;;;;;5090454;28;19956;-77
2021/09/10 13:13:52;;;;;;;;;;;23.30;89.00;;;;;;5091008;28;20377;-76
2021/09/10 13:16:18;;;;;;;;;;;23.30;88.90;;;;;;5091376;28;19947;-75
2021/09/10 13:18:44;;;;;;;;;;;23.30;89.00;;;;;;5109514;28;20332;-78
2021/09/10 13:21:09;;;;;;;;;;;23.30;89.00;;;;;;5091233;28;19907;-75
2021/09/10 13:23:35;;;;;;;;;;;23.20;88.80;;;;;;5109242;28;19919;-76
2021/09/10 13:26:00;;;;;;;;;;;23.30;89.10;;;;;;5109641;28;19918;-77
2021/09/10 13:28:26;;;;;;;;;;;23.40;89.20;;;;;;5109728;28;19908;-76
2021/09/10 13:30:52;;;;;;;;;;;23.50;89.00;;;;;;5108918;28;19957;-76
2021/09/10 13:33:17;;;;;;;;;;;23.60;88.80;;;;;;5089817;28;20285;-75
2021/09/10 13:35:43;;;;;;;;;;;23.60;88.50;;;;;;5108124;28;20485;-75
2021/09/10 13:38:08;;;;;;;;;;;23.70;88.40;;;;;;5108946;28;19922;-79
2021/09/10 13:40:34;;;;;;;;;;;23.70;88.60;;;;;;5108753;28;19912;-77
2021/09/10 13:43:00;;;;;;;;;;;23.80;89.10;;;;;;5108337;28;19908;-76
2021/09/10 13:45:25;;;;;;;;;;;23.90;88.50;;;;;;5089921;28;19907;-76
2021/09/10 13:47:51;;;;;;;;;;;24.00;88.00;;;;;;5072673;28;19912;-77
2021/09/10 13:50:18;;;;;;;;;;;24.10;88.20;;;;;;5108839;28;20235;-76
2021/09/10 13:52:43;;;;;;;;;;;24.10;88.30;;;;;;5090313;28;19915;-75
2021/09/10 13:55:09;;;;;;;;;;;24.10;88.30;;;;;;5090393;28;19964;-76
2021/09/10 13:57:35;;;;;;;;;;;24.20;88.40;;;;;;5108576;28;19946;-76
2021/09/10 14:00:01;;;;;;;;;;;24.10;88.00;;;;;;5108044;28;20058;-76
2021/09/10 14:02:26;;;;;;;;;;;24.10;87.90;;;;;;5110638;28;19910;-78
2021/09/10 14:04:54;;;;;;;;;;;24.00;88.00;;;;;;5112117;28;19999;-78
2021/09/10 14:07:19;;;;;;;;;;;24.00;87.90;;;;;;5112174;28;19908;-77
2021/09/10 14:09:45;;;;;;;;;;;23.80;87.80;;;;;;5093821;28;20243;-78
2021/09/10 14:12:11;;;;;;;;;;;23.70;87.60;;;;;;5077128;28;19908;-76
2021/09/10 14:14:36;;;;;;;;;;;23.50;87.60;;;;;;5094654;28;19911;-77